Latest Weather Observations for Nullarbor

IDS60801

Issued at 9:32 am CST Saturday 25 April 2015 (issued every 30 minutes, with the page automatically refreshed every 10 minutes)

About weather observations | Map of weather stations | Latest weather observations for SA | Other Formats
Station Details ID: 018106 Name: NULLARBOR Lat: -31.45 Lon: 130.90 Height: 64.0 m
Data from the previous 72 hours. | See also: Recent months at Nullarbor
Date/Time
CST
Temp
°C
App
Temp
°C
Dew
Point
Rel
Hum
%
Delta-T
°C
Wind Press
QNH
hPa
Press
MSL
hPa
Rain
since 9 am
mm
Dir
 
Spd
km/h
Gust
km/h
Spd
kts
Gust
kts
25/09:30am 16.2 10.8 10.9 71 2.8 SSW 30 41 16 22 1024.3 1024.1 0.0
25/09:00am 15.7 11.9 11.3 75 2.4 S 22 28 12 15 1024.0 1023.8 3.4
25/08:30am 15.1 11.3 9.9 71 2.7 SSW 20 28 11 15 1023.5 1023.3 3.4
25/08:00am 14.4 11.0 10.6 78 2.0 SSW 19 24 10 13 1023.2 1023.0 3.4
25/07:30am 13.7 10.1 9.9 78 2.0 SSW 19 22 10 12 1022.6 1022.5 3.4
25/07:00am 12.0 9.0 9.4 84 1.3 SW 15 17 8 9 1022.3 1022.2 3.4
25/06:30am 13.0 9.8 9.8 81 1.6 SW 17 19 9 10 1022.1 1022.0 3.4
25/06:00am 13.4 9.7 10.2 81 1.7 SSW 20 28 11 15 1021.9 1021.8 3.4
25/05:30am 12.8 8.9 9.6 81 1.6 SSW 20 26 11 14 1021.6 1021.5 3.4
25/05:00am 12.5 9.3 11.1 91 0.7 SSW 19 22 10 12 1021.5 1021.4 3.4
25/04:30am 12.3 9.9 11.4 94 0.5 SSW 15 20 8 11 1021.5 1021.4 3.4
25/04:00am 11.5 9.6 10.6 94 0.5 WSW 11 17 6 9 1021.4 1021.3 3.2
25/03:30am 11.8 9.2 10.7 93 0.6 SW 15 19 8 10 1021.4 1021.3 3.2
25/03:25am 11.9 9.7 10.8 93 0.6 SW 13 17 7 9 1021.4 1021.3 3.2
25/03:10am 12.4 8.1 10.8 90 0.8 SW 24 41 13 22 1021.6 1021.5 3.2
25/03:00am 12.7 8.3 10.4 86 1.2 SW 24 37 13 20 1021.4 1021.3 3.0
25/02:30am 12.1 9.8 10.3 89 0.9 SSW 13 17 7 9 1021.5 1021.4 2.8
25/02:00am 12.6 9.8 11.2 91 0.7 WSW 17 22 9 12 1021.6 1021.5 2.8
25/01:30am 12.4 9.4 10.8 90 0.8 SSW 17 24 9 13 1021.5 1021.4 2.8
25/01:00am 12.4 7.3 10.6 89 0.9 SW 28 39 15 21 1021.5 1021.4 2.8
25/12:30am 12.6 9.0 10.5 87 1.1 WSW 20 33 11 18 1021.4 1021.3 2.8
25/12:00am 12.6 9.3 9.6 82 1.5 SW 17 24 9 13 1021.4 1021.3 2.8
 
Date/Time
CST
Temp
°C
App
Temp
°C
Dew
Point
Rel
Hum
%
Delta-T
°C
Wind Press
QNH
hPa
Press
MSL
hPa
Rain
since 9 am
mm
Dir
 
Spd
km/h
Gust
km/h
Spd
kts
Gust
kts
24/11:33pm 12.7 8.2 9.9 83 1.4 SW 24 33 13 18 1021.5 1021.4 2.8
24/11:30pm 12.7 8.2 10.1 84 1.3 SW 24 37 13 20 1021.5 1021.4 2.8
24/11:23pm 12.6 9.0 10.7 88 1.0 SW 20 37 11 20 1021.7 1021.6 2.8
24/11:00pm 12.4 9.3 10.3 87 1.1 SW 17 20 9 11 1021.7 1021.6 2.6
24/10:30pm 12.0 8.8 9.9 87 1.1 SW 17 20 9 11 1021.7 1021.6 2.6
24/10:00pm 12.2 8.2 10.6 90 0.8 SW 22 30 12 16 1021.7 1021.6 2.6
24/09:30pm 12.2 7.7 10.1 87 1.1 SW 24 32 13 17 1021.8 1021.7 2.6
24/09:18pm 12.1 6.8 10.0 87 1.1 SW 28 46 15 25 1021.6 1021.5 2.6
24/09:12pm 12.2 8.8 10.6 90 0.8 SW 19 30 10 16 1021.8 1021.7 2.6
24/09:00pm 12.3 7.5 10.2 87 1.1 SW 26 39 14 21 1021.7 1021.6 2.6
24/08:57pm 12.4 7.5 10.0 85 1.2 SW 26 39 14 21 1021.7 1021.6 2.6
24/08:30pm 12.3 8.6 10.0 86 1.2 WSW 20 28 11 15 1021.6 1021.5 2.2
24/08:00pm 12.8 8.0 8.9 77 2.0 SW 24 32 13 17 1021.6 1021.5 2.2
24/07:30pm 12.7 8.6 10.2 85 1.3 WSW 22 37 12 20 1021.3 1021.2 2.2
24/07:00pm 12.2 6.8 9.4 83 1.4 SW 28 35 15 19 1021.1 1021.0 2.0
24/06:45pm 12.5 7.1 9.5 82 1.5 SW 28 57 15 31 1021.0 1020.9 2.0
24/06:30pm 12.3 8.0 10.7 90 0.8 SW 24 33 13 18 1020.9 1020.8 2.0
24/06:09pm 13.4 7.0 8.7 73 2.4 SW 32 54 17 29 1020.8 1020.7 2.0
24/06:00pm 13.3 6.6 8.2 71 2.5 SW 33 48 18 26 1020.6 1020.5 2.0
24/05:30pm 13.2 6.6 8.7 74 2.3 WSW 33 54 18 29 1020.6 1020.5 2.0
24/05:01pm 14.0 7.0 8.4 69 2.8 SW 35 54 19 29 1020.3 1020.2 1.8
24/05:00pm 14.0 6.6 8.4 69 2.8 SW 37 54 20 29 1020.3 1020.2 1.8
24/04:48pm 14.6 8.5 9.8 73 2.5 SW 32 50 17 27 1020.3 1020.2 1.8
24/04:34pm 13.3 9.5 11.2 87 1.1 WSW 22 30 12 16 1020.4 1020.3 1.8
24/04:30pm 13.2 9.4 11.3 88 1.0 WSW 22 30 12 16 1020.4 1020.3 1.8
24/04:13pm 13.0 7.0 10.2 83 1.5 WSW 32 43 17 23 1020.8 1020.7 1.6
24/04:00pm 14.0 7.8 10.2 78 2.0 WSW 33 44 18 24 1020.5 1020.4 1.2
24/03:30pm 13.7 8.4 11.2 85 1.3 SW 30 37 16 20 1020.4 1020.3 1.2
24/03:19pm 13.4 7.0 12.1 92 0.7 SW 37 56 20 30 1020.3 1020.2 1.2
24/03:11pm 13.4 6.0 10.0 80 1.8 SW 39 56 21 30 1020.2 1020.1 1.0
24/03:00pm 15.3 7.8 8.1 62 3.6 SW 37 48 20 26 1020.0 1019.9 0.4
24/02:30pm 14.9 7.1 8.4 65 3.3 WSW 39 54 21 29 1020.1 1020.0 0.4
24/02:00pm 15.8 9.6 9.2 65 3.4 WSW 32 54 17 29 1019.9 1019.8 0.4
24/01:56pm 15.0 9.7 10.0 72 2.6 WSW 28 46 15 25 1020.0 1019.9 0.4
24/01:54pm 14.3 9.1 10.1 76 2.2 SW 28 33 15 18 1020.0 1019.9 0.4
24/01:34pm 12.8 5.1 10.0 83 1.4 SW 41 61 22 33 1020.2 1020.1 0.4
24/01:30pm 14.0 6.6 8.4 69 2.8 SW 37 61 20 33 1020.1 1020.0 0.2
24/01:00pm 13.7 5.3 9.7 77 2.1 SW 44 63 24 34 1020.4 1020.3 0.2
24/12:57pm 14.3 6.4 9.3 72 2.6 WSW 41 63 22 34 1020.3 1020.2 0.2
24/12:37pm 15.0 9.5 10.4 74 2.4 SW 30 41 16 22 1020.6 1020.5 0.2
24/12:30pm 14.2 8.9 11.2 82 1.6 SW 30 43 16 23 1020.7 1020.6 0.2
24/12:20pm 12.8 4.6 9.6 81 1.6 WSW 43 61 23 33 1020.9 1020.8 0.2
24/12:19pm 13.2 4.8 9.6 79 1.8 WSW 44 61 24 33 1020.9 1020.8 0.2
24/12:13pm 15.4 8.1 8.6 64 3.5 SW 37 57 20 31 1020.6 1020.5 0.0
24/12:00pm 16.1 8.3 6.5 53 4.7 SW 37 50 20 27 1020.3 1020.2 0.0
24/11:30am 15.2 6.8 5.4 52 4.6 SW 39 52 21 28 1020.5 1020.4 0.0
24/11:00am 15.1 7.3 6.7 57 4.1 SW 37 52 20 28 1020.6 1020.5 0.0
24/10:51am 14.9 7.9 6.7 58 4.0 SW 33 52 18 28 1020.5 1020.4 0.0
24/10:30am 14.0 7.3 8.0 67 3.0 WSW 33 46 18 25 1020.6 1020.5 0.0
24/10:00am 14.4 7.8 7.7 64 3.3 SW 32 50 17 27 1020.6 1020.5 0.0
24/09:59am 14.3 7.7 7.6 64 3.3 SW 32 50 17 27 1020.6 1020.5 0.0
24/09:30am 14.6 7.2 4.9 52 4.5 SW 33 44 18 24 1020.2 1020.1 0.0
24/09:00am 14.4 7.2 7.5 63 3.4 SW 35 50 19 27 1019.9 1019.8 0.8
24/08:30am 14.4 8.1 7.5 63 3.4 SW 30 43 16 23 1019.5 1019.4 0.8
24/08:00am 14.2 8.6 8.6 69 2.8 SW 28 41 15 22 1019.0 1018.9 0.8
24/07:30am 12.9 6.7 9.5 80 1.7 SW 32 44 17 24 1018.7 1018.6 0.8
24/07:00am 13.8 7.7 10.4 80 1.8 SW 33 52 18 28 1018.2 1018.1 0.8
24/06:32am 14.6 8.8 10.8 78 2.0 SW 32 50 17 27 1017.7 1017.6 0.6
24/06:30am 14.5 9.1 10.9 79 1.9 SW 30 43 16 23 1017.8 1017.7 0.6
24/06:00am 14.7 9.9 11.5 81 1.7 SW 28 46 15 25 1017.5 1017.4 0.4
24/05:59am 14.7 9.9 11.5 81 1.7 SW 28 46 15 25 1017.4 1017.3 0.4
24/05:30am 14.3 9.9 13.0 92 0.7 SW 28 39 15 21 1017.3 1017.2 0.4
24/05:12am 14.2 10.0 13.6 96 0.3 SW 28 39 15 21 1017.0 1016.9 0.4
24/05:00am 13.8 9.0 13.0 95 0.4 SW 30 46 16 25 1016.9 1016.8 0.4
24/04:51am 14.2 9.4 12.8 91 0.8 SW 30 52 16 28 1016.9 1016.8 0.2
24/04:49am 14.6 10.2 13.0 90 0.9 SW 28 52 15 28 1016.9 1016.8 0.0
24/04:30am 14.6 12.1 14.0 96 0.3 SW 20 28 11 15 1016.6 1016.5 0.0
24/04:00am 13.4 11.2 13.2 99 0.1 WSW 17 26 9 14 1016.7 1016.6 0.0
24/03:30am 11.6 9.6 11.4 99 0.1 W 13 17 7 9 1016.6 1016.5 0.0
24/03:00am 10.7 8.8 10.4 98 0.2 W 11 15 6 8 1016.9 1016.8 0.0
24/02:30am 10.7 8.7 10.2 97 0.3 WNW 11 13 6 7 1016.9 1016.8 0.0
24/02:00am 10.7 8.4 10.4 98 0.2 WNW 13 17 7 9 1017.1 1017.0 0.0
24/01:30am 10.4 8.0 10.1 98 0.2 NW 13 17 7 9 1017.2 1017.1 0.0
24/01:00am 10.6 8.6 10.3 98 0.2 NW 11 15 6 8 1017.2 1017.1 0.0
24/12:30am 10.6 8.2 10.1 97 0.3 WNW 13 13 7 7 1017.3 1017.2 0.0
24/12:00am 11.1 8.8 10.6 97 0.3 WNW 13 15 7 8 1017.4 1017.3 0.0
 
Date/Time
CST
Temp
°C
App
Temp
°C
Dew
Point
Rel
Hum
%
Delta-T
°C
Wind Press
QNH
hPa
Press
MSL
hPa
Rain
since 9 am
mm
Dir
 
Spd
km/h
Gust
km/h
Spd
kts
Gust
kts
23/11:30pm 10.9 8.9 10.3 96 0.3 WNW 11 13 6 7 1017.5 1017.4 0.0
23/11:00pm 10.3 7.7 9.2 93 0.5 WNW 13 15 7 8 1017.9 1017.8 0.0
23/10:30pm 10.9 8.4 9.7 92 0.6 W 13 13 7 7 1018.0 1017.9 0.0
23/10:00pm 11.8 10.6 10.4 91 0.7 W 7 9 4 5 1018.2 1018.1 0.0
23/09:30pm 12.1 10.9 10.3 89 0.9 WNW 7 7 4 4 1018.1 1018.0 0.0
23/09:00pm 12.8 12.0 10.9 88 1.0 SSW 6 7 3 4 1018.0 1017.9 0.0
23/08:30pm 12.8 11.2 10.2 84 1.3 S 9 9 5 5 1018.0 1017.9 0.0
23/08:00pm 13.5 11.2 10.5 82 1.6 S 13 13 7 7 1018.2 1018.1 0.0
23/07:30pm 14.3 12.0 10.5 78 2.0 SSW 13 13 7 7 1018.2 1018.1 0.0
23/07:00pm 15.2 13.7 10.4 73 2.5 SSW 9 11 5 6 1018.1 1018.0 0.0
23/06:30pm 16.5 14.6 10.6 68 3.1 S 11 17 6 9 1017.8 1017.7 0.0
23/06:00pm 18.0 14.3 9.4 57 4.5 SSW 19 24 10 13 1017.6 1017.5 0.0
23/05:30pm 19.3 15.5 8.9 51 5.4 S 19 22 10 12 1017.4 1017.3 0.0
23/05:00pm 20.2 15.7 6.2 40 7.0 SSW 19 28 10 15 1017.3 1017.2 0.0
23/04:30pm 20.5 15.9 6.4 40 7.1 SSW 20 28 11 15 1017.4 1017.3 0.0
23/04:00pm 21.3 15.7 5.6 36 7.8 SW 24 33 13 18 1017.4 1017.3 0.0
23/03:30pm 21.9 16.2 4.9 33 8.4 SW 24 32 13 17 1017.2 1017.1 0.0
23/03:00pm 22.0 16.4 5.4 34 8.3 SW 24 33 13 18 1017.2 1017.1 0.0
23/02:30pm 21.7 16.9 7.5 40 7.4 SSW 22 33 12 18 1017.3 1017.2 0.0
23/02:00pm 21.7 18.0 6.4 37 7.8 W 15 24 8 13 1017.8 1017.7 0.0
23/01:30pm 20.9 16.8 6.1 38 7.4 WSW 17 22 9 12 1018.2 1018.1 0.0
23/01:00pm 20.5 17.5 7.8 44 6.6 W 13 19 7 10 1018.8 1018.7 0.0
23/12:30pm 19.8 17.7 8.2 47 6.0 WNW 9 15 5 8 1019.4 1019.3 0.0
23/12:00pm 19.2 17.7 9.1 52 5.3 NW 7 11 4 6 1019.9 1019.8 0.0
23/11:30am 18.1 16.4 10.0 59 4.3 WNW 9 13 5 7 1020.4 1020.3 0.0
23/11:00am 17.4 16.3 10.5 64 3.7 NNW 7 11 4 6 1020.4 1020.3 0.0
23/10:30am 16.7 14.9 11.0 69 3.1 N 11 17 6 9 1020.7 1020.6 0.0
23/10:00am 16.4 14.6 10.7 69 3.0 NNE 11 13 6 7 1020.7 1020.6 0.0
23/09:30am 16.0 14.4 11.6 75 2.4 NNE 11 13 6 7 1020.8 1020.7 0.0
23/09:00am 14.6 14.4 11.9 84 1.5 NNE 4 9 2 5 1020.8 1020.7 0.0
23/08:30am 13.5 14.0 11.6 88 1.0 CALM 0 0 0 0 1020.6 1020.5 0.0
23/08:00am 12.9 13.2 11.0 88 1.0 CALM 0 0 0 0 1020.5 1020.4 0.0
23/07:30am 12.7 13.0 10.9 89 0.9 CALM 0 0 0 0 1020.4 1020.3 0.0
23/07:00am 12.6 11.7 10.7 88 1.0 NE 6 7 3 4 1020.2 1020.1 0.0
23/06:30am 12.8 11.7 10.7 87 1.1 NE 7 7 4 4 1020.2 1020.1 0.0
23/06:00am 13.1 13.3 10.6 85 1.3 CALM 0 0 0 0 1020.3 1020.2 0.0
23/05:30am 12.9 11.7 10.4 85 1.3 NE 7 11 4 6 1020.3 1020.2 0.0
23/05:00am 13.3 11.8 10.5 83 1.5 NE 9 9 5 5 1020.1 1020.0 0.0
23/04:30am 13.4 11.5 10.6 83 1.5 E 11 13 6 7 1020.0 1019.9 0.0
23/04:00am 13.4 11.5 10.4 82 1.6 ESE 11 15 6 8 1020.1 1020.0 0.0
23/03:30am 13.9 12.0 10.5 80 1.8 ENE 11 17 6 9 1020.4 1020.3 0.0
23/03:00am 13.7 12.8 10.5 81 1.7 NNE 6 9 3 5 1020.8 1020.7 0.0
23/02:30am 13.9 11.9 10.3 79 1.9 E 11 15 6 8 1020.6 1020.5 0.0
23/02:00am 13.9 11.6 10.5 80 1.8 ENE 13 15 7 8 1021.1 1021.0 0.0
23/01:30am 13.8 12.3 10.4 80 1.8 ENE 9 11 5 6 1021.4 1021.3 0.0
23/01:00am 14.2 12.3 10.6 79 1.9 E 11 13 6 7 1021.4 1021.3 0.0
23/12:30am 14.4 12.6 10.8 79 1.9 ESE 11 17 6 9 1021.5 1021.4 0.0
23/12:00am 14.6 12.8 10.8 78 2.0 E 11 13 6 7 1021.8 1021.7 0.0
 
Date/Time
CST
Temp
°C
App
Temp
°C
Dew
Point
Rel
Hum
%
Delta-T
°C
Wind Press
QNH
hPa
Press
MSL
hPa
Rain
since 9 am
mm
Dir
 
Spd
km/h
Gust
km/h
Spd
kts
Gust
kts
22/11:30pm 14.8 13.5 11.2 79 1.9 ESE 9 11 5 6 1022.4 1022.3 0.0
22/11:00pm 15.1 13.5 11.5 79 1.9 SE 11 13 6 7 1022.6 1022.5 0.0
22/10:30pm 15.3 14.0 11.3 77 2.1 SE 9 11 5 6 1023.1 1022.9 0.0
22/10:00pm 15.5 13.5 11.5 77 2.2 SE 13 15 7 8 1023.1 1022.9 0.0
22/09:30pm 15.4 12.7 11.6 78 2.0 SE 17 20 9 11 1023.2 1023.0 0.0
22/09:00pm 15.2 13.4 11.0 76 2.2 SSE 11 15 6 8 1023.4 1023.2 0.0
22/08:30pm 15.3 13.9 10.9 75 2.3 SE 9 11 5 6 1023.6 1023.4 0.0
22/08:00pm 15.3 13.8 10.5 73 2.5 SE 9 13 5 7 1023.3 1023.1 0.0
22/07:30pm 15.7 13.7 10.2 70 2.9 SE 11 13 6 7 1023.1 1022.9 0.0
22/07:00pm 16.3 13.9 10.2 67 3.2 SSE 13 15 7 8 1022.9 1022.8 0.0
22/06:30pm 16.8 14.4 10.0 64 3.6 SSE 13 17 7 9 1022.7 1022.6 0.0
22/06:00pm 17.4 14.2 9.8 61 4.0 SSE 17 20 9 11 1022.6 1022.5 0.0
22/05:30pm 18.0 14.1 8.8 55 4.8 SSE 19 22 10 12 1022.6 1022.5 0.0
22/05:00pm 18.7 14.5 8.1 50 5.5 SSE 20 24 11 13 1022.6 1022.5 0.0
22/04:30pm 19.4 14.6 5.8 41 6.7 SSE 20 24 11 13 1022.4 1022.3 0.0
22/04:00pm 20.0 15.2 5.6 39 7.1 SSE 20 26 11 14 1022.3 1022.2 0.0
22/03:30pm 20.6 17.0 5.0 36 7.6 SSE 13 19 7 10 1022.4 1022.3 0.0
22/03:00pm 21.1 18.0 3.8 32 8.3 SE 9 13 5 7 1022.5 1022.4 0.0
22/02:30pm 21.0 18.5 4.6 34 8.0 ESE 7 15 4 8 1022.8 1022.7 0.0
22/02:00pm 20.4 17.1 4.4 35 7.8 ENE 11 19 6 10 1022.8 1022.7 0.0
22/01:30pm 20.2 17.7 4.7 36 7.5 ENE 7 19 4 10 1023.5 1023.3 0.0
22/01:00pm 20.6 17.6 5.8 38 7.4 NE 11 22 6 12 1024.1 1023.9 0.0
22/12:30pm 20.1 16.5 6.8 42 6.7 NNE 15 22 8 12 1024.7 1024.5 0.0
22/12:00pm 19.3 15.8 7.4 46 6.0 NNE 15 20 8 11 1024.9 1024.7 0.0
22/11:30am 18.6 15.1 7.4 48 5.7 NNE 15 20 8 11 1025.3 1025.1 0.0
22/11:00am 17.5 13.1 7.3 51 5.1 NE 20 26 11 14 1025.5 1025.3 0.0
22/10:30am 17.5 12.2 7.0 50 5.2 NE 24 28 13 15 1025.5 1025.3 0.0
22/10:00am 16.9 12.7 8.1 56 4.5 NE 20 28 11 15 1025.9 1025.7 0.0

Other Formats:

Comma delimited format used in spreadsheet applications
http://www.bom.gov.au/fwo/IDS60801/IDS60801.94651.axf

JavaScript Object Notation format (JSON) in row-major order
http://www.bom.gov.au/fwo/IDS60801/IDS60801.94651.json